Time;durP1;ratioP1;P1;durP2;ratioP2;P2;SDS_P1;SDS_P2;PMS_P1;PMS_P2;Temp;Humidity;BMP_temperature;BMP_pressure;BME280_temperature;BME280_humidity;BME280_pressure;Samples;Min_cycle;Max_cycle;Signal;HPM_P1;HPM_P2
2024/01/30 00:01:49;;;;;;;0.10;0.10;;;6.30;89.10;;;;;;4968101;28;20366;-70
2024/01/30 00:04:14;;;;;;;0.00;0.00;;;6.30;89.10;;;;;;4972066;28;20145;-70
2024/01/30 00:06:40;;;;;;;0.32;0.32;;;6.30;89.20;;;;;;4967119;28;20050;-70
2024/01/30 00:09:06;;;;;;;0.00;0.00;;;6.20;89.10;;;;;;4967177;28;20882;-70
2024/01/30 00:11:31;;;;;;;1.35;1.25;;;6.30;89.20;;;;;;4973811;28;20120;-70
2024/01/30 00:13:57;;;;;;;0.10;0.10;;;6.30;89.30;;;;;;4978432;28;20129;-70
2024/01/30 00:16:24;;;;;;;0.00;0.00;;;6.30;89.30;;;;;;4970352;28;20416;-70
2024/01/30 00:18:51;;;;;;;0.00;0.00;;;6.30;89.30;;;;;;4971052;28;20042;-70
2024/01/30 00:21:16;;;;;;;0.00;0.00;;;6.30;89.40;;;;;;4954163;28;20101;-70
2024/01/30 00:23:42;;;;;;;0.00;0.00;;;6.20;89.30;;;;;;4961265;28;20055;-70
2024/01/30 00:26:08;;;;;;;0.00;0.00;;;6.30;89.40;;;;;;4963662;28;20134;-70
2024/01/30 00:28:33;;;;;;;0.00;0.00;;;6.30;89.40;;;;;;4953715;28;20040;-70
2024/01/30 00:30:59;;;;;;;0.00;0.00;;;6.20;89.30;;;;;;4963170;28;20039;-70
2024/01/30 00:33:24;;;;;;;0.68;0.52;;;6.20;89.30;;;;;;4970043;28;20039;-70
2024/01/30 00:35:50;;;;;;;0.10;0.10;;;6.30;89.30;;;;;;4970133;28;20043;-70
2024/01/30 00:38:16;;;;;;;0.00;0.00;;;6.30;89.40;;;;;;4970428;28;20785;-70
2024/01/30 00:40:41;;;;;;;0.20;0.20;;;6.30;89.40;;;;;;4970305;28;20545;-70
2024/01/30 00:43:07;;;;;;;0.08;0.08;;;6.20;89.50;;;;;;4968687;28;20051;-70
2024/01/30 00:45:33;;;;;;;0.05;0.05;;;6.20;89.50;;;;;;4970091;28;20138;-70
2024/01/30 00:47:59;;;;;;;0.00;0.00;;;6.20;89.60;;;;;;4969686;28;20046;-70
2024/01/30 00:50:24;;;;;;;0.82;0.82;;;6.20;89.70;;;;;;4968880;28;20047;-70
2024/01/30 00:52:50;;;;;;;0.17;0.17;;;6.20;89.80;;;;;;4965739;28;20126;-70
2024/01/30 00:55:16;;;;;;;0.65;0.65;;;6.20;89.80;;;;;;4956681;28;20085;-70
2024/01/30 00:57:41;;;;;;;0.00;0.00;;;6.20;89.90;;;;;;4960490;28;20055;-70
2024/01/30 01:00:09;;;;;;;0.00;0.00;;;6.20;90.00;;;;;;4969387;28;20047;-70
2024/01/30 01:02:39;;;;;;;0.00;0.00;;;6.10;89.90;;;;;;4962797;28;20813;-70
2024/01/30 01:05:05;;;;;;;0.00;0.00;;;6.10;90.10;;;;;;4967983;28;20053;-70
2024/01/30 01:07:30;;;;;;;0.00;0.00;;;6.10;90.10;;;;;;4969590;28;20051;-70
2024/01/30 01:09:56;;;;;;;0.00;0.00;;;6.10;90.10;;;;;;4970106;28;20409;-70
2024/01/30 01:12:22;;;;;;;0.00;0.00;;;6.10;90.10;;;;;;4968798;28;20055;-70
2024/01/30 01:14:47;;;;;;;0.00;0.00;;;6.10;90.00;;;;;;4968753;28;20051;-70
2024/01/30 01:17:13;;;;;;;0.10;0.10;;;6.10;90.10;;;;;;4968927;28;20066;-70
2024/01/30 01:19:39;;;;;;;0.00;0.00;;;6.10;90.00;;;;;;4970043;28;20041;-70
2024/01/30 01:22:04;;;;;;;0.03;0.03;;;6.20;90.00;;;;;;4967371;28;20050;-70
2024/01/30 01:24:34;;;;;;;0.10;0.10;;;6.10;90.00;;;;;;4967172;28;20122;-70
2024/01/30 01:26:59;;;;;;;0.10;0.10;;;6.10;90.00;;;;;;4979673;28;20122;-70
2024/01/30 01:29:28;;;;;;;0.00;0.00;;;6.10;90.10;;;;;;4984347;28;20497;-70
2024/01/30 01:31:58;;;;;;;0.00;0.00;;;6.10;90.10;;;;;;4969837;28;20393;-70
2024/01/30 01:34:24;;;;;;;0.00;0.00;;;6.20;90.10;;;;;;4968890;28;20189;-70
2024/01/30 01:36:51;;;;;;;0.10;0.10;;;6.10;90.10;;;;;;4983894;28;20047;-70
2024/01/30 01:39:17;;;;;;;0.38;0.22;;;6.10;90.30;;;;;;4969029;28;20082;-70
2024/01/30 01:41:43;;;;;;;0.38;0.38;;;6.10;90.30;;;;;;4962041;28;20150;-70
2024/01/30 01:44:09;;;;;;;0.00;0.00;;;6.10;90.30;;;;;;4950579;28;20142;-70
2024/01/30 01:46:35;;;;;;;0.00;0.00;;;6.20;90.30;;;;;;4967082;28;20055;-70
2024/01/30 01:49:02;;;;;;;0.00;0.00;;;6.10;90.20;;;;;;4969665;28;20058;-70
2024/01/30 01:51:30;;;;;;;0.00;0.00;;;6.10;90.30;;;;;;4983465;28;20058;-70
2024/01/30 01:53:58;;;;;;;0.00;0.00;;;6.20;90.30;;;;;;4984136;28;20152;-70
2024/01/30 01:56:25;;;;;;;0.00;0.00;;;6.10;90.30;;;;;;4978573;28;20079;-70
2024/01/30 01:58:54;;;;;;;0.10;0.10;;;6.20;90.30;;;;;;4987398;28;20523;-70
2024/01/30 02:01:20;;;;;;;0.10;0.10;;;6.10;90.30;;;;;;4970113;28;20039;-70
2024/01/30 02:03:46;;;;;;;0.00;0.00;;;6.20;90.30;;;;;;4981365;28;20126;-70
2024/01/30 02:06:16;;;;;;;0.10;0.10;;;6.20;90.40;;;;;;4971868;28;20055;-70
2024/01/30 02:08:42;;;;;;;0.10;0.10;;;6.10;90.40;;;;;;4964401;28;20046;-70
2024/01/30 02:11:08;;;;;;;0.10;0.10;;;6.20;90.60;;;;;;4968734;28;20042;-70
2024/01/30 02:13:34;;;;;;;0.30;0.30;;;6.10;90.60;;;;;;4968855;28;20137;-70
2024/01/30 02:16:00;;;;;;;0.00;0.00;;;6.10;90.70;;;;;;4974178;28;20185;-70
2024/01/30 02:18:26;;;;;;;0.10;0.10;;;6.20;90.70;;;;;;4968141;28;20388;-70
2024/01/30 02:20:56;;;;;;;0.25;0.25;;;6.20;90.90;;;;;;4976513;28;20053;-70
2024/01/30 02:23:24;;;;;;;0.00;0.00;;;6.20;91.10;;;;;;4975584;28;20605;-70
2024/01/30 02:25:49;;;;;;;0.40;0.40;;;6.20;91.10;;;;;;4978307;28;20054;-70
2024/01/30 02:28:15;;;;;;;0.10;0.10;;;6.20;91.10;;;;;;4955008;28;20047;-70
2024/01/30 02:30:43;;;;;;;1.15;1.08;;;6.20;91.20;;;;;;4968171;28;20061;-70
2024/01/30 02:33:08;;;;;;;0.10;0.10;;;6.20;91.20;;;;;;4967688;28;20049;-70
2024/01/30 02:35:35;;;;;;;0.00;0.00;;;6.30;91.30;;;;;;4961587;28;20043;-70
2024/01/30 02:38:01;;;;;;;0.90;0.90;;;6.30;91.30;;;;;;4968642;28;20074;-70
2024/01/30 02:40:26;;;;;;;0.05;0.05;;;6.30;91.40;;;;;;4970858;28;20050;-70
2024/01/30 02:42:52;;;;;;;1.65;0.85;;;6.40;91.40;;;;;;4968254;28;20050;-70
2024/01/30 02:45:18;;;;;;;0.20;0.20;;;6.30;91.40;;;;;;4967617;28;20149;-70
2024/01/30 02:47:44;;;;;;;0.00;0.00;;;6.30;91.40;;;;;;4970457;28;20047;-70
2024/01/30 02:50:10;;;;;;;0.30;0.25;;;6.30;91.40;;;;;;4967182;28;20682;-70
2024/01/30 02:52:35;;;;;;;0.00;0.00;;;6.30;91.40;;;;;;4967687;28;20096;-70
2024/01/30 02:55:02;;;;;;;0.10;0.10;;;6.30;91.40;;;;;;4966687;28;20142;-70
2024/01/30 02:57:28;;;;;;;0.10;0.10;;;6.30;91.50;;;;;;4958035;28;20047;-70
2024/01/30 02:59:54;;;;;;;0.00;0.00;;;6.30;91.50;;;;;;4967883;28;20050;-70
2024/01/30 03:02:20;;;;;;;0.10;0.10;;;6.30;91.60;;;;;;4968473;28;20412;-70
2024/01/30 03:04:46;;;;;;;0.10;0.10;;;6.30;91.60;;;;;;4952226;28;20101;-70
2024/01/30 03:07:11;;;;;;;0.00;0.00;;;6.30;91.60;;;;;;4971534;28;20053;-70
2024/01/30 03:09:37;;;;;;;0.25;0.25;;;6.30;91.60;;;;;;4967511;28;20050;-70
2024/01/30 03:12:04;;;;;;;0.10;0.10;;;6.30;91.60;;;;;;4966127;28;20498;-70
2024/01/30 03:14:33;;;;;;;1.35;1.02;;;6.30;91.70;;;;;;4967085;28;20039;-70
2024/01/30 03:16:58;;;;;;;0.10;0.10;;;6.30;91.70;;;;;;4953623;28;20047;-70
2024/01/30 03:19:24;;;;;;;0.20;0.20;;;6.30;91.70;;;;;;4963228;28;20153;-70
2024/01/30 03:21:51;;;;;;;0.00;0.00;;;6.40;91.70;;;;;;4967536;28;20479;-70
2024/01/30 03:24:17;;;;;;;6.03;2.40;;;6.30;91.70;;;;;;4961692;28;20039;-70
2024/01/30 03:26:43;;;;;;;0.88;0.85;;;6.30;91.70;;;;;;4972682;28;20066;-70
2024/01/30 03:29:08;;;;;;;0.00;0.00;;;6.30;91.60;;;;;;4966327;28;20061;-70
2024/01/30 03:31:34;;;;;;;0.00;0.00;;;6.20;91.80;;;;;;4958564;28;20047;-70
2024/01/30 03:34:01;;;;;;;0.10;0.10;;;6.20;91.70;;;;;;4971538;28;20080;-70
2024/01/30 03:36:26;;;;;;;0.10;0.10;;;6.30;91.80;;;;;;4968146;28;20501;-70
2024/01/30 03:38:52;;;;;;;0.03;0.03;;;6.20;91.90;;;;;;4968723;28;20086;-70
2024/01/30 03:41:18;;;;;;;0.30;0.30;;;6.20;92.00;;;;;;4966824;28;20053;-70
2024/01/30 03:43:43;;;;;;;0.03;0.03;;;6.20;92.00;;;;;;4965625;28;20046;-70
2024/01/30 03:46:11;;;;;;;0.20;0.20;;;6.30;92.00;;;;;;4971039;28;20054;-70
2024/01/30 03:48:37;;;;;;;0.10;0.10;;;6.20;92.00;;;;;;4987235;28;20046;-70
2024/01/30 03:51:02;;;;;;;0.30;0.30;;;6.30;92.10;;;;;;4984943;28;20046;-70
2024/01/30 03:53:28;;;;;;;0.05;0.05;;;6.30;92.10;;;;;;5001340;23;20108;-70
2024/01/30 03:55:54;;;;;;;0.17;0.17;;;6.40;92.10;;;;;;4988591;28;20042;-70
2024/01/30 03:58:20;;;;;;;0.10;0.10;;;6.40;92.10;;;;;;4980430;28;20047;-70
2024/01/30 04:00:45;;;;;;;0.00;0.00;;;6.40;92.00;;;;;;4990384;28;20043;-70
2024/01/30 04:03:11;;;;;;;0.10;0.10;;;6.40;92.00;;;;;;4993409;28;20050;-71
2024/01/30 04:05:37;;;;;;;0.20;0.20;;;6.40;92.10;;;;;;4983694;28;20039;-70
2024/01/30 04:08:02;;;;;;;0.10;0.10;;;6.40;92.10;;;;;;4973716;28;20086;-70
2024/01/30 04:10:28;;;;;;;0.30;0.30;;;6.40;92.20;;;;;;4990267;28;20046;-71
2024/01/30 04:12:54;;;;;;;0.05;0.05;;;6.40;92.10;;;;;;4976684;28;20098;-71
2024/01/30 04:15:19;;;;;;;0.17;0.17;;;6.40;92.20;;;;;;4973446;28;20050;-71
2024/01/30 04:17:45;;;;;;;0.00;0.00;;;6.40;92.30;;;;;;4973807;28;20061;-71
2024/01/30 04:20:34;;;;;;;0.88;0.47;;;6.50;92.30;;;;;;4980307;28;20042;-71
2024/01/30 04:23:00;;;;;;;0.17;0.17;;;6.50;92.40;;;;;;4991950;28;20050;-71
2024/01/30 04:25:25;;;;;;;0.00;0.00;;;6.40;92.30;;;;;;4980872;28;20050;-71
2024/01/30 04:27:51;;;;;;;0.10;0.10;;;6.50;92.30;;;;;;4979097;28;20042;-71
2024/01/30 04:30:17;;;;;;;0.10;0.10;;;6.40;92.20;;;;;;4983156;28;20046;-71
2024/01/30 04:32:43;;;;;;;0.15;0.15;;;6.50;92.20;;;;;;4986201;28;20081;-71
2024/01/30 04:35:09;;;;;;;0.20;0.20;;;6.50;92.20;;;;;;4970253;28;20133;-71
2024/01/30 04:37:35;;;;;;;0.00;0.00;;;6.60;92.30;;;;;;4975081;28;20539;-71
2024/01/30 04:40:00;;;;;;;0.10;0.10;;;6.50;92.20;;;;;;4980564;28;20054;-71
2024/01/30 04:42:26;;;;;;;0.00;0.00;;;6.50;92.30;;;;;;4973524;28;20039;-71
2024/01/30 04:44:52;;;;;;;0.10;0.10;;;6.50;92.20;;;;;;4977606;28;20082;-71
2024/01/30 04:47:17;;;;;;;0.20;0.20;;;6.60;92.20;;;;;;4982266;28;20050;-71
2024/01/30 04:49:43;;;;;;;0.10;0.10;;;6.60;92.30;;;;;;4973456;28;20053;-71
2024/01/30 04:52:09;;;;;;;0.20;0.20;;;6.50;92.40;;;;;;4971660;28;20109;-71
2024/01/30 04:54:36;;;;;;;0.10;0.10;;;6.60;92.40;;;;;;4986277;28;20603;-71
2024/01/30 04:57:03;;;;;;;0.00;0.00;;;6.60;92.40;;;;;;4980425;28;20069;-71
2024/01/30 04:59:28;;;;;;;0.10;0.10;;;6.60;92.40;;;;;;4975694;28;20459;-71
2024/01/30 05:01:54;;;;;;;0.10;0.10;;;6.60;92.40;;;;;;4974948;28;20046;-71
2024/01/30 05:04:20;;;;;;;0.00;0.00;;;6.60;92.30;;;;;;4981196;28;20097;-71
2024/01/30 05:06:46;;;;;;;0.28;0.28;;;6.60;92.30;;;;;;4976058;28;20054;-71
2024/01/30 05:09:12;;;;;;;0.22;0.22;;;6.70;92.40;;;;;;4979840;28;20043;-71
2024/01/30 05:11:41;;;;;;;0.05;0.05;;;6.70;92.40;;;;;;4971646;28;20416;-71
2024/01/30 05:14:07;;;;;;;1.08;0.98;;;6.70;92.40;;;;;;4958633;28;20487;-71
2024/01/30 05:16:33;;;;;;;0.00;0.00;;;6.70;92.30;;;;;;4982717;28;20455;-71
2024/01/30 05:18:59;;;;;;;0.00;0.00;;;6.70;92.30;;;;;;4979607;28;20130;-72
2024/01/30 05:21:25;;;;;;;0.10;0.10;;;6.80;92.30;;;;;;4978477;28;20065;-71
2024/01/30 05:23:51;;;;;;;0.10;0.10;;;6.70;92.30;;;;;;4983586;28;20035;-71
2024/01/30 05:26:16;;;;;;;0.10;0.10;;;6.80;92.20;;;;;;4975778;28;20130;-71
2024/01/30 05:28:44;;;;;;;0.65;0.65;;;6.80;92.20;;;;;;4987482;28;20839;-71
2024/01/30 05:31:10;;;;;;;0.10;0.10;;;6.70;92.20;;;;;;4986316;28;20046;-71
2024/01/30 05:33:36;;;;;;;0.20;0.20;;;6.70;92.20;;;;;;4988200;28;20049;-72
2024/01/30 05:36:01;;;;;;;0.45;0.45;;;6.80;92.20;;;;;;4988796;28;20053;-70
2024/01/30 05:38:27;;;;;;;0.00;0.00;;;6.70;92.20;;;;;;4988537;28;20050;-71
2024/01/30 05:40:53;;;;;;;0.00;0.00;;;6.70;92.10;;;;;;4986955;28;20038;-72
2024/01/30 05:43:18;;;;;;;0.75;0.75;;;6.70;92.10;;;;;;4983102;28;20050;-73
2024/01/30 05:45:44;;;;;;;0.25;0.25;;;6.80;92.00;;;;;;4988052;28;20042;-72
2024/01/30 05:48:10;;;;;;;0.57;0.57;;;6.80;92.10;;;;;;4968075;28;20133;-72
2024/01/30 05:50:35;;;;;;;0.95;0.63;;;6.80;92.10;;;;;;4978215;28;20066;-72
2024/01/30 05:53:01;;;;;;;0.30;0.30;;;6.80;92.10;;;;;;4998418;28;21560;-72
2024/01/30 05:55:27;;;;;;;0.15;0.15;;;6.80;92.10;;;;;;4977965;28;20129;-70
2024/01/30 05:57:52;;;;;;;0.00;0.00;;;6.90;92.00;;;;;;4988891;28;20046;-71
2024/01/30 06:00:18;;;;;;;0.32;0.32;;;6.90;92.00;;;;;;4985993;28;20051;-71
2024/01/30 06:02:44;;;;;;;0.55;0.55;;;6.90;91.90;;;;;;4982303;28;20050;-73
2024/01/30 06:05:10;;;;;;;0.73;0.73;;;6.90;92.00;;;;;;4994671;28;20384;-73
2024/01/30 06:07:35;;;;;;;0.00;0.00;;;6.80;92.00;;;;;;4980161;28;20419;-74
2024/01/30 06:10:01;;;;;;;0.00;0.00;;;6.80;92.10;;;;;;4984941;28;20432;-74
2024/01/30 06:12:30;;;;;;;0.75;0.75;;;6.90;92.10;;;;;;4998179;28;20046;-74
2024/01/30 06:14:56;;;;;;;2.35;0.73;;;6.90;92.00;;;;;;4969169;28;20053;-74
2024/01/30 06:17:23;;;;;;;0.40;0.40;;;6.90;92.00;;;;;;4995616;28;20115;-74
2024/01/30 06:19:49;;;;;;;0.10;0.10;;;6.90;92.00;;;;;;4994366;28;20061;-73
2024/01/30 06:22:16;;;;;;;0.00;0.00;;;6.90;92.00;;;;;;4989697;28;20099;-74
2024/01/30 06:24:44;;;;;;;0.10;0.10;;;7.00;92.00;;;;;;5006570;28;20095;-73
2024/01/30 06:27:10;;;;;;;0.08;0.08;;;6.90;91.90;;;;;;4998115;28;20050;-73
2024/01/30 06:29:36;;;;;;;0.10;0.10;;;6.90;91.90;;;;;;4982606;28;20104;-73
2024/01/30 06:32:01;;;;;;;0.20;0.20;;;7.00;91.90;;;;;;5004894;28;20085;-73
2024/01/30 06:34:27;;;;;;;0.05;0.05;;;7.00;92.00;;;;;;5003216;28;20049;-73
2024/01/30 06:36:53;;;;;;;0.10;0.10;;;7.00;91.90;;;;;;5003939;28;20045;-73
2024/01/30 06:39:18;;;;;;;0.10;0.10;;;6.90;92.00;;;;;;4996985;28;20054;-73
2024/01/30 06:41:46;;;;;;;0.00;0.00;;;7.00;92.00;;;;;;5002461;28;20058;-73
2024/01/30 06:44:12;;;;;;;1.45;1.35;;;7.10;92.00;;;;;;4988704;28;20507;-74
2024/01/30 06:46:38;;;;;;;0.00;0.00;;;7.00;92.00;;;;;;4978196;28;20100;-74
2024/01/30 06:49:03;;;;;;;1.27;1.02;;;7.00;92.00;;;;;;4984687;28;20049;-75
2024/01/30 06:51:29;;;;;;;0.00;0.00;;;7.10;92.00;;;;;;4984761;28;20117;-73
2024/01/30 06:53:55;;;;;;;0.00;0.00;;;7.10;92.10;;;;;;4980361;28;20050;-73
2024/01/30 06:56:20;;;;;;;0.22;0.22;;;7.10;92.00;;;;;;4973454;28;20054;-73
2024/01/30 06:58:50;;;;;;;0.00;0.00;;;7.10;91.90;;;;;;4986078;28;20046;-73
2024/01/30 07:01:16;;;;;;;0.00;0.00;;;7.20;91.90;;;;;;4979658;28;20093;-73
2024/01/30 07:03:42;;;;;;;1.67;1.48;;;7.30;91.90;;;;;;4992432;28;20458;-71
2024/01/30 07:06:08;;;;;;;0.00;0.00;;;7.20;91.80;;;;;;4985001;28;20081;-72
2024/01/30 07:08:34;;;;;;;0.00;0.00;;;7.30;91.80;;;;;;4981405;28;20061;-72
2024/01/30 07:11:00;;;;;;;0.00;0.00;;;7.20;91.70;;;;;;4981764;28;20051;-72
2024/01/30 07:13:28;;;;;;;0.00;0.00;;;7.30;91.80;;;;;;4983397;28;20042;-71
2024/01/30 07:15:53;;;;;;;0.15;0.15;;;7.30;91.80;;;;;;4979735;28;20046;-73
2024/01/30 07:18:19;;;;;;;0.00;0.00;;;7.30;91.80;;;;;;4981600;28;20043;-72
2024/01/30 07:20:49;;;;;;;0.28;0.28;;;7.30;91.70;;;;;;4988495;28;20404;-72
2024/01/30 07:23:17;;;;;;;0.08;0.08;;;7.30;91.70;;;;;;4990619;28;20035;-73
2024/01/30 07:25:44;;;;;;;0.00;0.00;;;7.40;91.70;;;;;;4994693;28;20041;-73
2024/01/30 07:28:12;;;;;;;0.08;0.08;;;7.30;91.60;;;;;;4999434;28;20447;-73
2024/01/30 07:30:38;;;;;;;4.38;1.85;;;7.40;91.60;;;;;;4991367;28;20050;-73
2024/01/30 07:33:04;;;;;;;0.00;0.00;;;7.40;91.60;;;;;;4989408;28;20046;-73
2024/01/30 07:35:30;;;;;;;0.08;0.08;;;7.40;91.40;;;;;;4986927;28;20053;-73
2024/01/30 07:37:57;;;;;;;0.20;0.20;;;7.40;91.50;;;;;;4986997;28;20768;-72
2024/01/30 07:40:24;;;;;;;0.00;0.00;;;7.40;91.50;;;;;;4976834;28;20129;-72
2024/01/30 07:42:49;;;;;;;0.10;0.10;;;7.40;91.60;;;;;;4990082;28;20043;-73
2024/01/30 07:45:15;;;;;;;0.03;0.03;;;7.40;91.60;;;;;;4993022;28;20038;-72
2024/01/30 07:47:42;;;;;;;0.10;0.10;;;7.50;91.60;;;;;;4995689;28;20046;-72
2024/01/30 07:50:08;;;;;;;0.22;0.22;;;7.40;91.60;;;;;;4989827;28;20054;-72
2024/01/30 07:52:33;;;;;;;1.05;0.95;;;7.50;91.70;;;;;;4988153;28;20189;-72
2024/01/30 07:54:59;;;;;;;0.10;0.10;;;7.50;91.70;;;;;;4990766;28;20075;-72
2024/01/30 07:57:25;;;;;;;0.00;0.00;;;7.60;91.70;;;;;;4987664;28;20035;-72
2024/01/30 07:59:50;;;;;;;1.00;0.90;;;7.50;91.70;;;;;;4999743;28;20057;-72
2024/01/30 08:02:16;;;;;;;0.10;0.10;;;7.60;91.70;;;;;;4988964;28;20049;-73
2024/01/30 08:04:42;;;;;;;0.45;0.45;;;7.60;91.80;;;;;;4978166;28;20502;-72
2024/01/30 08:07:07;;;;;;;0.00;0.00;;;7.60;91.80;;;;;;4986321;28;20068;-72
2024/01/30 08:09:33;;;;;;;4.10;0.82;;;7.60;91.80;;;;;;4988047;28;20038;-73
2024/01/30 08:11:59;;;;;;;0.00;0.00;;;7.60;91.90;;;;;;4984768;28;20050;-72
2024/01/30 08:14:25;;;;;;;0.00;0.00;;;7.70;91.90;;;;;;4989164;28;20042;-73
2024/01/30 08:16:51;;;;;;;0.80;0.80;;;7.70;91.90;;;;;;4988411;28;20450;-73
2024/01/30 08:19:17;;;;;;;0.00;0.00;;;7.80;91.90;;;;;;4987259;28;20060;-72
2024/01/30 08:21:42;;;;;;;0.00;0.00;;;7.80;92.00;;;;;;4983438;28;20068;-72
2024/01/30 08:24:08;;;;;;;1.90;1.55;;;8.00;91.90;;;;;;4998737;28;20045;-72
2024/01/30 08:26:34;;;;;;;0.10;0.10;;;8.10;91.90;;;;;;4992271;28;20077;-72
2024/01/30 08:29:01;;;;;;;0.03;0.03;;;8.20;92.10;;;;;;4994489;28;20052;-72
2024/01/30 08:31:27;;;;;;;0.15;0.15;;;8.30;91.70;;;;;;4995915;28;20727;-72
2024/01/30 08:33:52;;;;;;;0.00;0.00;;;8.40;91.70;;;;;;4997774;28;20117;-72
2024/01/30 08:36:19;;;;;;;0.25;0.25;;;8.40;91.60;;;;;;4996261;28;20042;-72
2024/01/30 08:38:44;;;;;;;0.00;0.00;;;8.40;91.60;;;;;;4996261;28;20050;-72
2024/01/30 08:41:10;;;;;;;0.00;0.00;;;8.50;91.70;;;;;;4995444;28;20081;-72
2024/01/30 08:43:36;;;;;;;0.00;0.00;;;8.60;91.70;;;;;;4995303;28;20557;-72
2024/01/30 08:46:02;;;;;;;0.10;0.10;;;8.60;91.60;;;;;;4992269;28;20049;-72
2024/01/30 08:48:27;;;;;;;0.52;0.52;;;8.60;91.60;;;;;;4978107;28;20034;-72
2024/01/30 08:50:53;;;;;;;0.00;0.00;;;8.70;91.60;;;;;;4983172;28;20078;-71
2024/01/30 08:53:19;;;;;;;2.05;1.85;;;8.70;91.60;;;;;;4982320;28;20595;-73
2024/01/30 08:55:45;;;;;;;0.15;0.15;;;8.80;91.50;;;;;;4981098;28;20061;-73
2024/01/30 08:58:11;;;;;;;0.25;0.25;;;8.80;91.50;;;;;;4980051;28;20046;-72
2024/01/30 09:00:37;;;;;;;0.10;0.10;;;8.90;91.30;;;;;;4982502;28;20034;-72
2024/01/30 09:03:03;;;;;;;4.95;0.90;;;8.90;91.30;;;;;;4991704;28;20041;-72
2024/01/30 09:05:29;;;;;;;0.40;0.40;;;9.00;91.20;;;;;;4987394;28;20109;-72
2024/01/30 09:07:55;;;;;;;0.13;0.13;;;9.00;91.00;;;;;;4973564;28;20050;-72
2024/01/30 09:10:21;;;;;;;0.00;0.00;;;9.10;91.00;;;;;;4986872;28;20054;-72
2024/01/30 09:12:47;;;;;;;9.32;2.75;;;9.10;90.90;;;;;;4986471;28;20390;-72
2024/01/30 09:15:13;;;;;;;1.35;0.80;;;9.20;90.90;;;;;;4999683;28;20073;-72
2024/01/30 09:17:38;;;;;;;0.17;0.17;;;9.10;90.80;;;;;;4998315;28;20132;-72
2024/01/30 09:20:05;;;;;;;0.40;0.40;;;9.20;90.70;;;;;;4976092;28;20424;-72
2024/01/30 09:22:31;;;;;;;0.35;0.35;;;9.30;90.70;;;;;;4987297;28;20093;-72
2024/01/30 09:24:57;;;;;;;0.25;0.25;;;9.30;90.60;;;;;;4987507;28;20085;-72
2024/01/30 09:27:23;;;;;;;0.10;0.10;;;9.30;90.60;;;;;;4987706;28;20400;-72
2024/01/30 09:29:49;;;;;;;1.05;0.95;;;9.30;90.60;;;;;;4991997;28;20057;-72
2024/01/30 09:32:15;;;;;;;0.00;0.00;;;9.30;90.60;;;;;;4978564;28;20556;-71
2024/01/30 09:34:41;;;;;;;0.00;0.00;;;9.30;90.50;;;;;;4988203;28;20100;-72
2024/01/30 09:37:07;;;;;;;0.15;0.13;;;9.40;90.40;;;;;;4994079;28;20091;-72
2024/01/30 09:39:32;;;;;;;0.35;0.35;;;9.40;90.30;;;;;;4992816;28;20082;-72
2024/01/30 09:42:24;;;;;;;0.20;0.20;;;9.40;90.20;;;;;;4985596;28;20089;-72
2024/01/30 09:44:54;;;;;;;0.00;0.00;;;9.40;90.10;;;;;;4978725;28;20057;-72
2024/01/30 09:47:20;;;;;;;0.00;0.00;;;9.30;90.00;;;;;;4987256;28;20043;-72
2024/01/30 09:49:46;;;;;;;0.00;0.00;;;9.40;90.10;;;;;;4986457;28;20050;-72
2024/01/30 09:52:12;;;;;;;1.10;1.07;;;9.30;90.10;;;;;;4930449;28;1739124;-72
2024/01/30 09:54:38;;;;;;;2.85;1.35;;;9.30;90.10;;;;;;4986179;28;20089;-72
2024/01/30 09:57:05;;;;;;;0.10;0.10;;;9.30;90.00;;;;;;4986137;28;20050;-70
2024/01/30 09:59:31;;;;;;;0.00;0.00;;;9.20;90.10;;;;;;4989390;28;20074;-72
2024/01/30 10:01:57;;;;;;;0.52;0.52;;;9.20;90.20;;;;;;4989850;28;20100;-73
2024/01/30 10:04:23;;;;;;;0.25;0.25;;;9.20;90.10;;;;;;4974849;28;20723;-73
2024/01/30 10:06:50;;;;;;;1.00;0.90;;;9.20;90.20;;;;;;4981326;28;20038;-72
2024/01/30 10:09:16;;;;;;;0.63;0.52;;;9.10;90.20;;;;;;4988252;28;20046;-72
2024/01/30 10:11:41;;;;;;;0.10;0.10;;;9.20;90.30;;;;;;4976711;28;20097;-72
2024/01/30 10:14:07;;;;;;;0.10;0.10;;;9.20;90.20;;;;;;4987393;28;20046;-72
2024/01/30 10:16:34;;;;;;;0.10;0.10;;;9.20;90.20;;;;;;4988198;28;20434;-72
2024/01/30 10:19:00;;;;;;;0.43;0.43;;;9.20;90.10;;;;;;4976130;28;20504;-72
2024/01/30 10:21:26;;;;;;;0.85;0.85;;;9.20;90.20;;;;;;4987655;28;20085;-72
2024/01/30 10:23:52;;;;;;;0.30;0.30;;;9.30;90.10;;;;;;4987408;28;20751;-72
2024/01/30 10:26:18;;;;;;;0.10;0.10;;;9.40;89.90;;;;;;4991263;28;20509;-70
2024/01/30 10:28:43;;;;;;;0.10;0.10;;;9.50;89.80;;;;;;5006652;28;20046;-70
2024/01/30 10:31:09;;;;;;;0.47;0.47;;;9.50;89.70;;;;;;4982370;28;20051;-70
2024/01/30 10:33:35;;;;;;;0.00;0.00;;;9.50;89.50;;;;;;4980049;28;20100;-71
2024/01/30 10:36:02;;;;;;;0.00;0.00;;;9.60;89.10;;;;;;4984856;28;20066;-71
2024/01/30 10:38:29;;;;;;;0.10;0.10;;;9.60;89.00;;;;;;4983111;28;20046;-71
2024/01/30 10:41:00;;;;;;;0.10;0.10;;;9.60;89.20;;;;;;4983454;28;20448;-71
2024/01/30 10:43:44;;;;;;;1.13;1.05;;;9.60;89.10;;;;;;4980587;28;20094;-71
2024/01/30 10:46:22;;;;;;;0.00;0.00;;;9.50;89.10;;;;;;4985500;28;20042;-70
2024/01/30 10:48:57;;;;;;;0.00;0.00;;;9.40;89.30;;;;;;4985291;28;20050;-69
2024/01/30 10:51:25;;;;;;;0.08;0.08;;;9.40;89.50;;;;;;4979274;28;20038;-70
2024/01/30 10:53:53;;;;;;;6.88;0.73;;;9.40;89.50;;;;;;4977912;28;20529;-71
2024/01/30 10:56:21;;;;;;;0.00;0.00;;;9.40;89.80;;;;;;4981361;28;20599;-70
2024/01/30 10:58:48;;;;;;;0.40;0.40;;;9.20;89.90;;;;;;4979381;28;20051;-70
2024/01/30 11:01:15;;;;;;;0.00;0.00;;;9.20;90.20;;;;;;4985103;28;20783;-70
2024/01/30 11:03:41;;;;;;;0.03;0.03;;;9.20;90.10;;;;;;4988804;28;20072;-70
2024/01/30 11:06:13;;;;;;;0.03;0.03;;;9.20;90.10;;;;;;4979423;28;20130;-70
2024/01/30 11:08:39;;;;;;;0.00;0.00;;;9.10;90.10;;;;;;4977003;28;20050;-70
2024/01/30 11:11:09;;;;;;;0.20;0.20;;;9.10;90.40;;;;;;4978422;28;20046;-70
2024/01/30 11:13:35;;;;;;;0.00;0.00;;;9.10;90.50;;;;;;4985845;28;20415;-70
2024/01/30 11:16:05;;;;;;;0.10;0.10;;;9.00;90.50;;;;;;4980841;28;20050;-70
2024/01/30 11:18:32;;;;;;;0.00;0.00;;;9.00;90.70;;;;;;4983327;28;20042;-70
2024/01/30 11:21:00;;;;;;;0.15;0.15;;;9.00;90.90;;;;;;4980519;28;20093;-71
2024/01/30 11:23:26;;;;;;;0.00;0.00;;;8.90;91.20;;;;;;4986511;28;20827;-70
2024/01/30 11:25:53;;;;;;;0.00;0.00;;;9.00;91.30;;;;;;4987207;28;20061;-70
2024/01/30 11:28:20;;;;;;;0.00;0.00;;;9.00;91.00;;;;;;4990287;28;20046;-70
2024/01/30 11:30:47;;;;;;;0.22;0.22;;;9.00;90.90;;;;;;4975738;28;20951;-70
2024/01/30 11:33:14;;;;;;;0.00;0.00;;;8.90;90.90;;;;;;4980220;28;20484;-70
2024/01/30 11:35:44;;;;;;;0.00;0.00;;;8.90;91.10;;;;;;4995209;28;20093;-70
2024/01/30 11:38:13;;;;;;;0.00;0.00;;;8.90;91.10;;;;;;4980923;28;20089;-70
2024/01/30 11:40:39;;;;;;;0.00;0.00;;;8.90;91.30;;;;;;4983662;28;20051;-69
2024/01/30 11:43:06;;;;;;;0.00;0.00;;;8.80;91.40;;;;;;4984298;28;20039;-70
2024/01/30 11:45:32;;;;;;;0.00;0.00;;;8.80;91.40;;;;;;4990241;28;20053;-70
2024/01/30 11:48:03;;;;;;;0.45;0.45;;;8.90;91.30;;;;;;4989612;28;20096;-70
2024/01/30 11:50:33;;;;;;;0.00;0.00;;;8.90;91.20;;;;;;4983156;28;20042;-70
2024/01/30 11:52:59;;;;;;;0.00;0.00;;;8.90;91.00;;;;;;4981145;28;20046;-70
2024/01/30 11:55:26;;;;;;;0.10;0.10;;;8.90;90.90;;;;;;4985011;28;20510;-71
2024/01/30 11:57:55;;;;;;;0.00;0.00;;;8.90;90.60;;;;;;4981510;28;20058;-70
2024/01/30 12:00:20;;;;;;;0.20;0.20;;;9.00;90.60;;;;;;4985603;28;20046;-70
2024/01/30 12:02:57;;;;;;;0.05;0.05;;;8.90;90.60;;;;;;4985484;28;20049;-70
2024/01/30 12:05:23;;;;;;;0.00;0.00;;;8.90;90.70;;;;;;4984776;28;20046;-71
2024/01/30 12:07:49;;;;;;;0.00;0.00;;;9.00;90.50;;;;;;4987728;28;20528;-70
2024/01/30 12:10:16;;;;;;;0.00;0.00;;;8.90;90.70;;;;;;4979000;28;20121;-70
2024/01/30 12:12:45;;;;;;;0.00;0.00;;;9.00;90.80;;;;;;4987779;28;20495;-70
2024/01/30 12:15:12;;;;;;;0.00;0.00;;;9.00;90.90;;;;;;4987354;28;20192;-70
2024/01/30 12:17:37;;;;;;;0.00;0.00;;;9.00;90.60;;;;;;4981715;28;20548;-70
2024/01/30 12:20:14;;;;;;;0.00;0.00;;;9.00;90.80;;;;;;4988278;28;20069;-70
2024/01/30 12:22:44;;;;;;;0.00;0.00;;;9.00;90.90;;;;;;4988916;28;20039;-70
2024/01/30 12:25:15;;;;;;;0.00;0.00;;;9.10;90.80;;;;;;4987981;28;20414;-70
2024/01/30 12:27:46;;;;;;;0.03;0.03;;;9.10;90.90;;;;;;4982403;28;20046;-70
2024/01/30 12:30:13;;;;;;;0.00;0.00;;;9.10;90.60;;;;;;4990324;28;20042;-70
2024/01/30 12:32:44;;;;;;;0.30;0.30;;;9.10;90.60;;;;;;4992450;28;20615;-71
2024/01/30 12:35:11;;;;;;;0.00;0.00;;;9.00;90.40;;;;;;4990871;28;20475;-71
2024/01/30 12:37:37;;;;;;;0.00;0.00;;;9.10;90.50;;;;;;4978466;28;20042;-71
2024/01/30 12:40:03;;;;;;;0.00;0.00;;;9.10;90.60;;;;;;4975978;28;20086;-71
2024/01/30 12:42:29;;;;;;;0.00;0.00;;;9.20;90.40;;;;;;4991313;28;20046;-70
2024/01/30 12:44:58;;;;;;;0.00;0.00;;;9.10;90.60;;;;;;4982653;28;20389;-72
2024/01/30 12:47:24;;;;;;;0.00;0.00;;;9.10;90.50;;;;;;4984206;28;20046;-73
2024/01/30 12:49:53;;;;;;;0.00;0.00;;;9.10;90.60;;;;;;4982252;28;20432;-72
2024/01/30 12:52:19;;;;;;;0.10;0.10;;;9.10;90.80;;;;;;4978793;28;20058;-71
2024/01/30 12:54:45;;;;;;;0.00;0.00;;;9.10;90.80;;;;;;4973206;28;20050;-72